Time;durP1;ratioP1;P1;durP2;ratioP2;P2;SDS_P1;SDS_P2;PMS_P1;PMS_P2;Temp;Humidity;BMP_temperature;BMP_pressure;BME280_temperature;BME280_humidity;BME280_pressure;Samples;Min_cycle;Max_cycle;Signal;HPM_P1;HPM_P2
2021/09/01 00:01:21;;;;;;;13.00;8.03;;;12.30;1.00;;;;;;5058498;28;20497;-77
2021/09/01 00:03:57;;;;;;;18.40;8.67;;;12.20;1.00;;;;;;5071851;28;20417;-77
2021/09/01 00:06:23;;;;;;;19.43;8.83;;;12.20;1.00;;;;;;5065619;28;20433;-77
2021/09/01 00:09:03;;;;;;;19.90;8.30;;;12.20;1.00;;;;;;5074160;28;20493;-77
2021/09/01 00:11:33;;;;;;;13.67;8.73;;;12.20;1.00;;;;;;5053881;28;20426;-77
2021/09/01 00:14:03;;;;;;;15.63;9.10;;;12.20;1.00;;;;;;5065265;28;20501;-78
2021/09/01 00:16:33;;;;;;;16.30;9.30;;;12.10;1.00;;;;;;5073948;28;20753;-77
2021/09/01 00:19:07;;;;;;;19.60;9.30;;;12.20;1.00;;;;;;5074162;28;20402;-77
2021/09/01 00:21:34;;;;;;;18.13;8.93;;;12.10;1.00;;;;;;5065371;28;20492;-77
2021/09/01 00:24:00;;;;;;;17.70;8.93;;;12.10;1.00;;;;;;5054544;28;20426;-77
2021/09/01 00:26:26;;;;;;;16.90;9.13;;;12.10;1.00;;;;;;5059318;28;20421;-77
2021/09/01 00:28:57;;;;;;;18.30;9.03;;;12.20;1.00;;;;;;5064564;28;20783;-78
2021/09/01 00:31:27;;;;;;;17.37;9.30;;;12.20;1.00;;;;;;5066060;28;20440;-77
2021/09/01 00:33:53;;;;;;;18.17;9.13;;;12.30;1.00;;;;;;5073643;28;20444;-77
2021/09/01 00:36:19;;;;;;;17.97;8.97;;;12.10;1.00;;;;;;5071578;28;21214;-77
2021/09/01 00:38:46;;;;;;;16.23;8.57;;;12.30;1.00;;;;;;5071236;28;20848;-77
2021/09/01 00:41:28;;;;;;;19.50;9.03;;;12.10;1.00;;;;;;5073883;28;20410;-77
2021/09/01 00:43:58;;;;;;;13.97;8.30;;;12.20;1.00;;;;;;5054538;28;20866;-80
2021/09/01 00:46:27;;;;;;;21.00;8.90;;;12.10;1.00;;;;;;5064679;28;20441;-80
2021/09/01 00:48:57;;;;;;;19.97;9.07;;;12.10;1.00;;;;;;5069291;28;20411;-80
2021/09/01 00:51:33;;;;;;;16.50;9.33;;;12.10;1.00;;;;;;5054378;28;20777;-80
2021/09/01 00:54:13;;;;;;;28.37;8.60;;;12.10;1.00;;;;;;5072392;28;20808;-80
2021/09/01 00:56:53;;;;;;;19.70;8.33;;;12.10;1.00;;;;;;5074928;28;20409;-80
2021/09/01 00:59:31;;;;;;;18.13;8.43;;;12.10;1.00;;;;;;5063759;28;20409;-80
2021/09/01 01:01:57;;;;;;;11.57;7.80;;;12.00;1.00;;;;;;5060415;28;20765;-80
2021/09/01 01:04:36;;;;;;;14.07;8.50;;;12.00;1.00;;;;;;5077434;28;20417;-80
2021/09/01 01:07:11;;;;;;;13.50;8.27;;;12.00;1.00;;;;;;5071713;28;20444;-80
2021/09/01 01:09:39;;;;;;;16.73;7.80;;;12.00;1.00;;;;;;5074697;28;20433;-80
2021/09/01 01:12:12;;;;;;;11.80;7.90;;;12.00;1.00;;;;;;5079730;28;20412;-80
2021/09/01 01:14:43;;;;;;;20.50;8.73;;;12.00;1.00;;;;;;5073221;28;20785;-80
2021/09/01 01:17:17;;;;;;;15.23;8.50;;;12.00;1.00;;;;;;5059830;28;20398;-80
2021/09/01 01:19:48;;;;;;;13.77;7.50;;;12.00;1.00;;;;;;5064665;28;20413;-80
2021/09/01 01:22:15;;;;;;;13.50;8.60;;;12.00;1.00;;;;;;5076109;28;20500;-80
2021/09/01 01:25:00;;;;;;;16.03;8.70;;;11.90;1.00;;;;;;5062988;28;20911;-80
2021/09/01 01:27:30;;;;;;;14.53;8.00;;;11.90;1.00;;;;;;5060275;28;20437;-80
2021/09/01 01:29:58;;;;;;;14.80;8.30;;;11.90;1.00;;;;;;5064258;28;20470;-80
2021/09/01 01:32:24;;;;;;;16.43;7.60;;;12.00;1.00;;;;;;5075652;28;20519;-80
2021/09/01 01:34:51;;;;;;;14.30;8.10;;;11.80;1.00;;;;;;5075543;28;20951;-80
2021/09/01 01:37:16;;;;;;;23.93;7.93;;;11.90;1.00;;;;;;5070746;28;20434;-80
2021/09/01 01:39:45;;;;;;;16.53;8.10;;;11.80;1.00;;;;;;5067175;28;20458;-80
2021/09/01 01:42:14;;;;;;;12.93;7.13;;;11.80;1.00;;;;;;5073866;28;20175;-80
2021/09/01 01:44:45;;;;;;;16.00;7.57;;;11.80;1.00;;;;;;5078178;28;20985;-80
2021/09/01 01:47:15;;;;;;;14.97;7.07;;;11.70;1.00;;;;;;5079799;28;20474;-80
2021/09/01 01:50:14;;;;;;;13.10;7.40;;;11.70;1.00;;;;;;5071328;28;20499;-80
2021/09/01 01:52:57;;;;;;;15.37;7.20;;;11.70;1.00;;;;;;5062054;28;20405;-80
2021/09/01 01:55:33;;;;;;;15.97;7.20;;;11.70;1.00;;;;;;5059681;28;20444;-80
2021/09/01 01:58:15;;;;;;;11.87;7.50;;;11.70;1.00;;;;;;5059456;28;20409;-80
2021/09/01 02:00:45;;;;;;;11.50;6.90;;;11.70;1.00;;;;;;5088740;28;20413;-80
2021/09/01 02:03:15;;;;;;;19.97;8.23;;;11.60;1.00;;;;;;5079514;28;20755;-80
2021/09/01 02:05:41;;;;;;;13.53;7.93;;;11.60;1.00;;;;;;5059703;28;20457;-80
2021/09/01 02:08:07;;;;;;;13.83;7.23;;;11.60;1.00;;;;;;5066264;28;20884;-80
2021/09/01 02:10:33;;;;;;;13.57;7.23;;;11.60;1.00;;;;;;5074807;28;20198;-80
2021/09/01 02:13:03;;;;;;;10.33;6.37;;;11.70;1.00;;;;;;5067918;28;20174;-80
2021/09/01 02:15:39;;;;;;;14.33;7.47;;;11.60;1.00;;;;;;5075610;28;20463;-80
2021/09/01 02:18:15;;;;;;;9.07;6.63;;;11.50;1.00;;;;;;5075891;28;20397;-80
2021/09/01 02:20:45;;;;;;;11.77;6.90;;;11.50;1.00;;;;;;5059063;28;20425;-80
2021/09/01 02:23:15;;;;;;;15.00;6.97;;;11.50;1.00;;;;;;5065653;28;20426;-80
2021/09/01 02:26:02;;;;;;;19.73;7.03;;;11.60;1.00;;;;;;5061692;28;20440;-80
2021/09/01 02:28:33;;;;;;;11.23;7.30;;;11.40;1.00;;;;;;5057457;28;20432;-80
2021/09/01 02:30:59;;;;;;;12.40;6.80;;;11.50;1.00;;;;;;5055371;28;20476;-81
2021/09/01 02:33:33;;;;;;;17.57;7.60;;;11.40;1.00;;;;;;5058731;28;20409;-80
2021/09/01 02:36:15;;;;;;;13.47;7.40;;;11.40;1.00;;;;;;5074126;28;20908;-80
2021/09/01 02:38:45;;;;;;;12.53;7.43;;;11.40;1.00;;;;;;5059346;28;20923;-79
2021/09/01 02:41:27;;;;;;;12.50;7.30;;;11.40;1.00;;;;;;5067536;28;20780;-80
2021/09/01 02:43:58;;;;;;;23.07;7.63;;;11.20;1.00;;;;;;5075627;28;20512;-79
2021/09/01 02:46:44;;;;;;;14.80;8.10;;;11.20;1.00;;;;;;5075241;28;20431;-80
2021/09/01 02:49:15;;;;;;;11.97;7.30;;;11.20;1.00;;;;;;5075006;28;20828;-80
2021/09/01 02:51:45;;;;;;;14.03;7.97;;;11.20;1.00;;;;;;5058291;28;20452;-80
2021/09/01 02:54:15;;;;;;;11.00;6.50;;;11.20;1.00;;;;;;5055727;28;20441;-80
2021/09/01 02:56:46;;;;;;;12.57;8.00;;;11.10;1.00;;;;;;5055941;28;20414;-80
2021/09/01 02:59:15;;;;;;;13.80;8.77;;;11.30;1.00;;;;;;5057847;28;20408;-79
2021/09/01 03:01:40;;;;;;;19.60;8.80;;;11.10;1.00;;;;;;5072031;28;20413;-80
2021/09/01 03:04:06;;;;;;;14.40;8.10;;;11.00;1.00;;;;;;5075152;28;20424;-80
2021/09/01 03:06:32;;;;;;;15.33;7.57;;;11.00;1.00;;;;;;5061986;28;20845;-80
2021/09/01 03:09:09;;;;;;;18.50;8.87;;;11.00;1.00;;;;;;5074979;28;20170;-80
2021/09/01 03:11:35;;;;;;;12.80;7.20;;;11.00;1.00;;;;;;5068687;28;20181;-81
2021/09/01 03:14:15;;;;;;;11.20;6.80;;;11.90;1.00;;;;;;5067496;28;20411;-80
2021/09/01 03:16:45;;;;;;;12.17;7.47;;;11.50;1.00;;;;;;5055121;28;20737;-80
2021/09/01 03:19:22;;;;;;;16.03;7.40;;;11.00;1.00;;;;;;5066224;28;20470;-80
2021/09/01 03:21:57;;;;;;;13.43;6.53;;;11.00;1.00;;;;;;5067971;28;20428;-80
2021/09/01 03:24:22;;;;;;;11.73;7.40;;;11.00;1.00;;;;;;5073077;28;20420;-80
2021/09/01 03:27:14;;;;;;;16.40;6.90;;;10.90;1.00;;;;;;5074749;28;20979;-80
2021/09/01 03:30:03;;;;;;;13.70;7.40;;;10.90;1.00;;;;;;5069167;28;20531;-80
2021/09/01 03:32:39;;;;;;;18.43;8.20;;;10.90;1.00;;;;;;5064064;28;20430;-80
2021/09/01 03:35:09;;;;;;;15.00;6.77;;;10.90;1.00;;;;;;5072444;28;20425;-80
2021/09/01 03:37:35;;;;;;;14.43;7.80;;;10.90;1.00;;;;;;5071640;28;20410;-80
2021/09/01 03:40:15;;;;;;;14.73;7.70;;;10.80;1.00;;;;;;5057278;28;20897;-80
2021/09/01 03:42:45;;;;;;;14.13;8.07;;;10.80;1.00;;;;;;5056139;28;20494;-80
2021/09/01 03:45:15;;;;;;;14.83;7.80;;;10.80;1.00;;;;;;5055174;28;20891;-80
2021/09/01 03:47:51;;;;;;;14.10;7.90;;;10.80;1.00;;;;;;5084193;28;20433;-80
2021/09/01 03:50:21;;;;;;;17.00;7.43;;;10.80;1.00;;;;;;5072843;28;20452;-80
2021/09/01 03:52:47;;;;;;;20.40;8.23;;;10.80;1.00;;;;;;5073131;28;20410;-80
2021/09/01 03:55:15;;;;;;;16.50;8.30;;;10.80;1.00;;;;;;5073643;28;20431;-80
2021/09/01 03:57:41;;;;;;;14.27;8.07;;;10.80;1.00;;;;;;5065113;28;20947;-80
2021/09/01 04:00:08;;;;;;;16.43;7.70;;;10.80;1.00;;;;;;5054798;28;20481;-77
2021/09/01 04:02:45;;;;;;;11.40;7.40;;;10.70;1.00;;;;;;5062134;28;20429;-77
2021/09/01 04:05:10;;;;;;;13.67;7.63;;;10.70;1.00;;;;;;5067435;28;20504;-77
2021/09/01 04:07:39;;;;;;;16.00;8.23;;;11.00;1.00;;;;;;5062763;28;20516;-77
2021/09/01 04:10:15;;;;;;;15.97;7.77;;;10.80;1.00;;;;;;5053843;28;20561;-77
2021/09/01 04:12:51;;;;;;;17.03;6.90;;;10.80;1.00;;;;;;5054440;28;20421;-77
2021/09/01 04:15:44;;;;;;;11.67;7.70;;;10.80;1.00;;;;;;5059662;28;20908;-78
2021/09/01 04:18:10;;;;;;;14.57;8.07;;;10.80;1.00;;;;;;5062398;28;20409;-78
2021/09/01 04:20:39;;;;;;;14.67;7.20;;;10.90;1.00;;;;;;5070864;28;20413;-79
2021/09/01 04:23:09;;;;;;;15.93;8.10;;;10.80;1.00;;;;;;5059294;28;20229;-85
2021/09/01 04:25:34;;;;;;;14.83;7.97;;;10.80;1.00;;;;;;5060693;28;20761;-78
2021/09/01 04:28:03;;;;;;;17.90;8.13;;;10.90;1.00;;;;;;5054921;28;20418;-77
2021/09/01 04:30:29;;;;;;;17.77;8.80;;;10.80;1.00;;;;;;5053731;28;20203;-80
2021/09/01 04:32:57;;;;;;;18.43;8.83;;;11.10;1.00;;;;;;5054627;28;20476;-80
2021/09/01 04:35:39;;;;;;;25.33;9.67;;;10.80;1.00;;;;;;5072717;28;20722;-80
2021/09/01 04:38:09;;;;;;;16.60;8.63;;;10.90;1.00;;;;;;5066480;28;20417;-80
2021/09/01 04:40:51;;;;;;;15.67;7.73;;;10.90;1.00;;;;;;5053722;28;20399;-80
2021/09/01 04:43:21;;;;;;;16.57;8.43;;;10.90;1.00;;;;;;5067077;28;20839;-80
2021/09/01 04:45:51;;;;;;;17.07;8.20;;;10.90;1.00;;;;;;5072768;28;20405;-77
2021/09/01 04:48:21;;;;;;;22.00;8.70;;;10.90;1.00;;;;;;5065773;28;20812;-77
2021/09/01 04:51:26;;;;;;;20.03;9.90;;;11.10;1.00;;;;;;5053991;28;20464;-77
2021/09/01 04:53:52;;;;;;;13.37;8.10;;;11.00;1.00;;;;;;5053923;28;20512;-77
2021/09/01 04:56:27;;;;;;;21.83;8.63;;;11.00;1.00;;;;;;5053970;28;20473;-77
2021/09/01 04:59:14;;;;;;;18.13;8.57;;;11.10;1.00;;;;;;5064907;28;20655;-80
2021/09/01 05:01:45;;;;;;;28.33;8.00;;;11.10;1.00;;;;;;5066551;28;20409;-82
2021/09/01 05:04:15;;;;;;;15.90;7.57;;;11.20;1.00;;;;;;5073161;28;20467;-81
2021/09/01 05:10:04;;;;;;;18.43;8.40;;;11.40;1.00;;;;;;5058249;28;20678;-88
2021/09/01 05:19:27;;;;;;;20.00;7.97;;;;;;;;;;5063862;28;20437;-86
2021/09/01 05:25:30;;;;;;;18.73;9.23;;;11.60;1.00;;;;;;5065648;28;20413;-77
2021/09/01 05:27:57;;;;;;;16.70;8.90;;;11.70;1.00;;;;;;5068683;28;20507;-77
2021/09/01 05:30:28;;;;;;;20.57;8.00;;;11.80;1.00;;;;;;5057963;28;20469;-77
2021/09/01 05:33:05;;;;;;;15.47;9.13;;;11.70;1.00;;;;;;5068014;28;20527;-81
2021/09/01 05:36:03;;;;;;;17.20;8.77;;;11.80;1.00;;;;;;5070389;28;20900;-81
2021/09/01 05:38:34;;;;;;;17.87;8.70;;;11.90;1.00;;;;;;5053408;28;20406;-81
2021/09/01 05:41:09;;;;;;;13.90;8.90;;;11.90;1.00;;;;;;5054267;28;20422;-82
2021/09/01 05:43:46;;;;;;;18.40;9.30;;;12.00;1.00;;;;;;5057057;28;20402;-81
2021/09/01 05:46:16;;;;;;;22.70;9.57;;;12.10;1.00;;;;;;5070870;28;20455;-86
2021/09/01 05:48:44;;;;;;;15.33;8.13;;;12.20;1.00;;;;;;5090933;28;20440;-81
2021/09/01 05:51:22;;;;;;;15.20;9.10;;;12.30;1.00;;;;;;5070139;28;20537;-79
2021/09/01 05:53:57;;;;;;;20.30;10.10;;;12.40;1.00;;;;;;5057075;28;20417;-78
2021/09/01 05:56:43;;;;;;;26.80;10.20;;;12.60;1.00;;;;;;5056631;28;20920;-78
2021/09/01 05:59:20;;;;;;;25.30;10.40;;;12.80;1.00;;;;;;5058231;28;20392;-78
2021/09/01 06:02:25;;;;;;;24.53;10.80;;;13.20;1.00;;;;;;5076825;28;20420;-77
2021/09/01 06:04:54;;;;;;;26.57;10.60;;;13.20;1.00;;;;;;5076385;28;20472;-77
2021/09/01 06:07:23;;;;;;;21.70;11.20;;;13.50;1.00;;;;;;5076297;28;20428;-77
2021/09/01 06:09:53;;;;;;;30.70;12.13;;;13.70;1.00;;;;;;5074032;28;20766;-77
2021/09/01 06:12:21;;;;;;;30.43;10.10;;;14.00;1.00;;;;;;5076153;28;20418;-76
2021/09/01 06:14:57;;;;;;;20.90;10.00;;;14.20;1.00;;;;;;5056261;28;20394;-76
2021/09/01 06:17:23;;;;;;;19.13;9.40;;;14.30;1.00;;;;;;5056532;28;20394;-78
2021/09/01 06:19:49;;;;;;;23.33;9.47;;;14.70;1.00;;;;;;5057126;28;20767;-78
2021/09/01 06:22:16;;;;;;;20.30;10.50;;;14.70;1.00;;;;;;5069777;28;20516;-79
2021/09/01 06:24:42;;;;;;;18.00;10.03;;;14.90;1.00;;;;;;5070502;28;20777;-78
2021/09/01 06:27:08;;;;;;;21.23;10.40;;;15.20;1.00;;;;;;5055501;28;20410;-78
2021/09/01 06:29:34;;;;;;;22.93;11.00;;;15.30;1.00;;;;;;5056824;28;20552;-78
2021/09/01 06:32:03;;;;;;;20.47;9.10;;;15.50;1.00;;;;;;5056841;28;20449;-78
2021/09/01 06:37:51;;;;;;;22.00;8.20;;;16.10;1.00;;;;;;5073162;28;20421;-78
2021/09/01 06:40:20;;;;;;;16.73;8.73;;;16.20;1.00;;;;;;5074959;28;20392;-78
2021/09/01 06:43:26;;;;;;;15.70;8.50;;;16.20;1.00;;;;;;5062277;28;20491;-78
2021/09/01 06:45:52;;;;;;;15.47;8.90;;;16.30;1.00;;;;;;5061912;28;20392;-78
2021/09/01 06:48:20;;;;;;;27.07;7.30;;;16.30;1.00;;;;;;5071545;28;20463;-78
2021/09/01 06:50:45;;;;;;;21.03;7.90;;;16.50;1.00;;;;;;5069483;28;20195;-78
2021/09/01 06:53:12;;;;;;;14.67;8.30;;;16.30;1.00;;;;;;5074404;28;20398;-78
2021/09/01 06:55:38;;;;;;;16.03;7.60;;;16.40;1.00;;;;;;5074807;28;20156;-78
2021/09/01 06:58:14;;;;;;;16.47;7.93;;;16.40;1.00;;;;;;5064315;28;20786;-78
2021/09/01 07:00:39;;;;;;;19.10;8.43;;;16.40;1.00;;;;;;5067262;28;20930;-78
2021/09/01 07:03:05;;;;;;;17.07;8.30;;;16.30;1.00;;;;;;5058626;28;20412;-77
2021/09/01 07:05:50;;;;;;;12.13;7.83;;;16.30;1.00;;;;;;5053915;28;20209;-77
2021/09/01 07:08:17;;;;;;;18.50;8.87;;;16.40;1.00;;;;;;5066482;28;20184;-78
2021/09/01 07:10:51;;;;;;;16.83;8.33;;;16.40;1.00;;;;;;5069108;28;20770;-78
2021/09/01 07:13:18;;;;;;;13.73;7.70;;;16.50;1.00;;;;;;5075111;28;20398;-77
2021/09/01 07:15:44;;;;;;;18.17;8.47;;;16.60;1.00;;;;;;5075630;28;20394;-77
2021/09/01 07:18:15;;;;;;;21.10;7.80;;;16.60;1.00;;;;;;5067618;28;20415;-79
2021/09/01 07:20:45;;;;;;;15.20;7.23;;;16.70;1.00;;;;;;5067340;28;20392;-79
2021/09/01 07:23:16;;;;;;;11.77;7.47;;;16.80;1.00;;;;;;5070908;28;20421;-78
2021/09/01 07:25:42;;;;;;;15.07;8.43;;;16.80;1.00;;;;;;5053949;28;20931;-79
2021/09/01 07:28:08;;;;;;;13.20;6.80;;;17.00;1.00;;;;;;5054910;28;20406;-78
2021/09/01 07:30:36;;;;;;;16.63;6.80;;;17.00;1.00;;;;;;5053824;28;20228;-78
2021/09/01 07:33:04;;;;;;;20.30;7.63;;;17.10;1.00;;;;;;5054312;28;20264;-77
2021/09/01 07:35:39;;;;;;;17.07;7.67;;;17.10;1.00;;;;;;5054790;28;20747;-77
2021/09/01 07:38:15;;;;;;;13.53;7.37;;;17.30;1.00;;;;;;5054784;28;20427;-77
2021/09/01 07:40:52;;;;;;;18.07;7.90;;;17.30;1.00;;;;;;5064404;28;20388;-78
2021/09/01 07:43:21;;;;;;;17.90;7.70;;;17.30;1.00;;;;;;5059512;28;20394;-77
2021/09/01 07:45:51;;;;;;;12.43;6.63;;;17.30;1.00;;;;;;5074500;28;20407;-77
2021/09/01 07:48:21;;;;;;;9.97;7.10;;;17.40;1.00;;;;;;5073204;28;20405;-78
2021/09/01 07:50:57;;;;;;;15.80;7.53;;;17.40;1.00;;;;;;5059885;28;20440;-78
2021/09/01 07:53:50;;;;;;;13.00;6.83;;;17.60;1.00;;;;;;5057575;28;20442;-77
2021/09/01 07:56:16;;;;;;;17.17;7.87;;;17.70;1.00;;;;;;5073147;28;20404;-77
2021/09/01 07:58:51;;;;;;;16.80;7.73;;;17.80;1.00;;;;;;5064392;28;20429;-79
2021/09/01 08:04:11;;;;;;;14.97;7.43;;;18.00;1.00;;;;;;5058266;28;20780;-78
2021/09/01 08:09:39;;;;;;;15.93;6.80;;;18.20;1.00;;;;;;5067607;28;21188;-75
2021/09/01 08:12:10;;;;;;;17.10;7.23;;;18.40;1.00;;;;;;5050067;28;20413;-75
2021/09/01 08:14:39;;;;;;;10.60;6.70;;;18.50;1.00;;;;;;5050677;28;20391;-75
2021/09/01 08:17:15;;;;;;;13.47;5.90;;;18.60;1.00;;;;;;5051161;28;20881;-75
2021/09/01 08:19:51;;;;;;;19.00;7.83;;;18.70;1.00;;;;;;5050085;28;20388;-76
2021/09/01 08:22:21;;;;;;;15.80;7.57;;;18.80;1.00;;;;;;5050087;28;20756;-76
2021/09/01 08:25:09;;;;;;;16.97;7.10;;;19.00;1.00;;;;;;5049201;28;20916;-76
2021/09/01 08:27:39;;;;;;;11.90;6.67;;;19.10;1.00;;;;;;5050233;28;20424;-78
2021/09/01 08:30:09;;;;;;;17.23;6.30;;;19.20;1.00;;;;;;5045119;28;20503;-77
2021/09/01 08:32:39;;;;;;;14.87;6.37;;;19.70;1.00;;;;;;5030918;28;20430;-76
2021/09/01 08:35:06;;;;;;;21.40;6.10;;;19.80;1.00;;;;;;5050135;28;20492;-76
2021/09/01 08:37:39;;;;;;;11.50;6.20;;;19.90;1.00;;;;;;5049688;28;20427;-76
2021/09/01 08:40:10;;;;;;;10.07;5.83;;;20.00;1.00;;;;;;5079942;28;20429;-76
2021/09/01 08:42:43;;;;;;;17.40;6.30;;;20.00;1.00;;;;;;5048549;28;20799;-76
2021/09/01 08:45:09;;;;;;;12.77;5.80;;;20.00;1.00;;;;;;5050278;28;20406;-76
2021/09/01 08:47:37;;;;;;;20.97;6.80;;;20.00;1.00;;;;;;5048527;28;20783;-76
2021/09/01 08:50:05;;;;;;;22.93;6.20;;;20.20;1.00;;;;;;5047500;28;20426;-76
2021/09/01 08:52:36;;;;;;;14.23;5.50;;;20.30;1.00;;;;;;5048928;28;20792;-76
2021/09/01 08:55:04;;;;;;;15.50;6.70;;;20.50;1.00;;;;;;5049940;28;20497;-76
2021/09/01 08:57:30;;;;;;;15.67;5.60;;;;;;;;;;5049849;28;20460;-76
2021/09/01 08:59:57;;;;;;;18.83;6.50;;;20.40;1.00;;;;;;5049628;28;20414;-76
2021/09/01 09:02:30;;;;;;;13.40;6.20;;;20.20;1.00;;;;;;5045574;28;20533;-76
2021/09/01 09:04:57;;;;;;;8.27;5.80;;;20.20;1.00;;;;;;5049298;28;20445;-76
2021/09/01 09:07:23;;;;;;;13.67;6.90;;;20.20;1.00;;;;;;5048132;28;20422;-76
2021/09/01 09:09:51;;;;;;;14.70;6.43;;;20.10;1.00;;;;;;5046523;28;20438;-77
2021/09/01 09:12:32;;;;;;;9.90;5.90;;;20.10;1.00;;;;;;5047718;28;20500;-76
2021/09/01 09:14:58;;;;;;;18.80;6.20;;;20.20;1.00;;;;;;5050003;28;20474;-76
2021/09/01 09:17:35;;;;;;;12.83;6.20;;;20.50;1.00;;;;;;5045956;28;22578;-76
2021/09/01 09:20:04;;;;;;;15.50;6.03;;;20.60;1.00;;;;;;5037152;28;20184;-76
2021/09/01 09:22:40;;;;;;;14.17;5.80;;;20.80;1.00;;;;;;5033606;28;20547;-76
2021/09/01 09:25:15;;;;;;;11.90;5.50;;;20.80;1.00;;;;;;5033399;28;20911;-76
2021/09/01 09:28:02;;;;;;;16.60;6.60;;;20.90;1.00;;;;;;5024226;28;20417;-76
2021/09/01 09:30:45;;;;;;;13.17;6.00;;;20.80;1.00;;;;;;5030325;28;20482;-76
2021/09/01 09:33:21;;;;;;;13.77;5.57;;;20.70;1.00;;;;;;5036220;28;20459;-76
2021/09/01 09:35:53;;;;;;;11.50;5.60;;;20.80;1.00;;;;;;5035776;28;20399;-77
2021/09/01 09:38:45;;;;;;;15.13;6.43;;;20.80;1.00;;;;;;5031499;28;20473;-76
2021/09/01 09:41:38;;;;;;;14.67;5.63;;;21.00;1.00;;;;;;5035713;28;20498;-76
2021/09/01 09:44:12;;;;;;;12.60;6.40;;;21.20;1.00;;;;;;5035541;28;20420;-76
2021/09/01 09:46:49;;;;;;;19.30;6.90;;;;;;;;;;5015289;28;20792;-77
2021/09/01 09:49:15;;;;;;;14.70;6.33;;;21.50;1.00;;;;;;5029552;28;20420;-76
2021/09/01 09:51:45;;;;;;;14.30;6.30;;;21.60;1.00;;;;;;5035677;28;20446;-77
2021/09/01 09:55:02;;;;;;;9.43;6.00;;;21.70;1.00;;;;;;5035248;28;20580;-77
2021/09/01 09:57:28;;;;;;;13.30;6.17;;;21.80;1.00;;;;;;5029035;28;20431;-76
2021/09/01 09:59:57;;;;;;;14.50;5.57;;;21.90;1.00;;;;;;5026814;28;20404;-76
2021/09/01 10:02:33;;;;;;;11.80;5.77;;;22.10;1.00;;;;;;5019334;28;20408;-76
2021/09/01 10:05:03;;;;;;;12.67;6.20;;;22.20;1.00;;;;;;5031479;28;20514;-77
2021/09/01 10:07:33;;;;;;;9.73;5.77;;;22.50;1.00;;;;;;5034675;28;20426;-77
2021/09/01 10:10:26;;;;;;;12.40;5.67;;;22.40;1.00;;;;;;5034853;28;20432;-76
2021/09/01 10:13:03;;;;;;;10.77;5.50;;;22.40;1.00;;;;;;5015881;28;20410;-76
2021/09/01 10:16:17;;;;;;;16.70;6.00;;;22.30;1.00;;;;;;5032030;28;20423;-76
2021/09/01 10:18:56;;;;;;;11.67;5.90;;;22.10;1.00;;;;;;5033204;28;20478;-76
2021/09/01 10:21:30;;;;;;;10.87;5.87;;;22.10;1.00;;;;;;5035226;28;20829;-77
2021/09/01 10:23:57;;;;;;;12.13;5.50;;;22.20;1.00;;;;;;5035074;28;20419;-76
2021/09/01 10:26:31;;;;;;;16.37;6.17;;;22.00;1.00;;;;;;5033325;28;20430;-80
2021/09/01 10:32:22;;;;;;;12.93;6.53;;;;;;;;;;5014419;28;20925;-85
2021/09/01 10:34:48;;;;;;;16.60;6.20;;;21.40;1.00;;;;;;5028449;28;20934;-86
2021/09/01 10:37:38;;;;;;;14.40;6.40;;;21.40;1.00;;;;;;5027578;28;20415;-88
2021/09/01 10:40:10;;;;;;;12.30;6.27;;;21.50;1.00;;;;;;5014492;28;20190;-84
2021/09/01 10:42:40;;;;;;;17.57;6.30;;;21.60;1.00;;;;;;5029133;28;20411;-85
2021/09/01 10:45:09;;;;;;;6.00;4.90;;;21.70;1.00;;;;;;5034596;28;20391;-86
2021/09/01 10:47:50;;;;;;;11.43;5.70;;;21.90;1.00;;;;;;5033342;28;20505;-83
2021/09/01 10:50:17;;;;;;;13.40;5.20;;;22.10;1.00;;;;;;5034616;28;20520;-88
2021/09/01 10:52:58;;;;;;;7.77;5.87;;;22.20;1.00;;;;;;5025664;28;20409;-84
2021/09/01 10:55:25;;;;;;;7.60;5.13;;;22.10;1.00;;;;;;5034431;28;20481;-84
2021/09/01 10:58:24;;;;;;;11.20;5.60;;;22.00;1.00;;;;;;5034038;28;20959;-84
2021/09/01 11:00:58;;;;;;;8.57;5.70;;;21.90;1.00;;;;;;5032215;28;20427;-85
2021/09/01 11:03:33;;;;;;;12.90;6.00;;;21.90;1.00;;;;;;5032753;28;20429;-81
2021/09/01 11:06:31;;;;;;;13.47;5.20;;;22.00;1.00;;;;;;5030598;28;20465;-82
2021/09/01 11:09:13;;;;;;;9.17;5.83;;;22.20;1.00;;;;;;5044135;28;20458;-81
2021/09/01 11:11:48;;;;;;;7.30;5.00;;;22.40;1.00;;;;;;5032398;28;20441;-81
2021/09/01 11:14:33;;;;;;;8.03;5.40;;;22.50;1.00;;;;;;5033578;28;20386;-81
2021/09/01 11:17:11;;;;;;;12.77;5.30;;;22.60;1.00;;;;;;5030009;28;20449;-81
2021/09/01 11:20:03;;;;;;;18.53;5.90;;;22.70;1.00;;;;;;5034185;28;20493;-83
2021/09/01 11:22:45;;;;;;;10.43;5.20;;;22.60;1.00;;;;;;5032845;28;20476;-83
2021/09/01 11:25:13;;;;;;;9.67;4.70;;;22.60;1.00;;;;;;5032501;28;20412;-84
2021/09/01 11:27:50;;;;;;;16.23;5.50;;;23.00;1.00;;;;;;5032528;28;20427;-83
2021/09/01 11:30:38;;;;;;;7.70;4.67;;;23.00;1.00;;;;;;5030485;28;20515;-83
2021/09/01 11:33:39;;;;;;;11.93;5.60;;;23.20;1.00;;;;;;5066135;28;20404;-83
2021/09/01 11:36:39;;;;;;;12.67;4.60;;;23.30;1.00;;;;;;5057622;28;20523;-81
2021/09/01 11:39:10;;;;;;;7.60;5.20;;;23.50;1.00;;;;;;5031931;28;20455;-81
2021/09/01 11:42:12;;;;;;;11.60;4.47;;;23.70;1.00;;;;;;5033570;28;20414;-81
2021/09/01 11:44:40;;;;;;;8.90;5.07;;;24.00;1.00;;;;;;5011976;28;20460;-82
2021/09/01 11:47:16;;;;;;;10.00;5.67;;;24.10;1.00;;;;;;4985207;28;20471;-81
2021/09/01 11:49:42;;;;;;;9.77;5.87;;;24.10;1.00;;;;;;5010767;28;20434;-82
2021/09/01 11:52:09;;;;;;;9.73;4.80;;;24.00;1.00;;;;;;5010934;28;20427;-81
2021/09/01 11:54:41;;;;;;;10.97;4.90;;;24.00;1.00;;;;;;5004573;28;20525;-81
2021/09/01 11:57:08;;;;;;;6.73;4.47;;;23.90;1.00;;;;;;5010202;28;20944;-81
2021/09/01 11:59:35;;;;;;;11.13;5.27;;;24.00;1.00;;;;;;4993330;28;20523;-81
2021/09/01 12:02:27;;;;;;;8.23;4.67;;;24.00;1.00;;;;;;5009203;28;20782;-81
2021/09/01 12:04:53;;;;;;;9.97;4.80;;;24.00;1.00;;;;;;5017425;28;20489;-81
2021/09/01 12:07:29;;;;;;;8.87;4.80;;;23.50;1.00;;;;;;4999964;28;21171;-82
2021/09/01 12:09:58;;;;;;;8.10;4.67;;;23.60;1.00;;;;;;5005199;28;20971;-82
2021/09/01 12:13:01;;;;;;;7.77;4.10;;;23.40;1.00;;;;;;5007876;28;20440;-82
2021/09/01 12:15:28;;;;;;;8.70;5.03;;;23.30;1.00;;;;;;4998850;28;20429;-82
2021/09/01 12:18:02;;;;;;;7.20;4.40;;;23.20;1.00;;;;;;4983078;28;20553;-81
2021/09/01 12:20:36;;;;;;;12.83;5.03;;;23.20;1.00;;;;;;5011782;28;20391;-82
2021/09/01 12:23:16;;;;;;;10.80;4.73;;;23.10;1.00;;;;;;5018857;28;20459;-82
2021/09/01 12:26:17;;;;;;;9.27;4.47;;;23.00;1.00;;;;;;5027832;28;20418;-83
2021/09/01 12:28:51;;;;;;;7.17;4.87;;;23.00;1.00;;;;;;4975801;28;20427;-83
2021/09/01 12:32:02;;;;;;;12.30;4.97;;;23.10;1.00;;;;;;4999330;28;20420;-83
2021/09/01 12:34:39;;;;;;;7.90;4.93;;;23.20;1.00;;;;;;5011817;28;20512;-83
2021/09/01 12:37:09;;;;;;;9.50;3.93;;;23.40;1.00;;;;;;4995142;28;20520;-83
2021/09/01 12:43:10;;;;;;;10.53;4.73;;;23.60;1.00;;;;;;5001119;28;20554;-83
2021/09/01 12:45:41;;;;;;;10.43;5.00;;;23.50;1.00;;;;;;5009518;28;20437;-82
2021/09/01 12:48:09;;;;;;;11.43;4.77;;;;;;;;;;5008997;28;20431;-83
2021/09/01 12:50:50;;;;;;;9.33;4.90;;;23.70;1.00;;;;;;5006593;28;20403;-82
2021/09/01 12:53:21;;;;;;;19.90;5.40;;;23.80;1.00;;;;;;5006835;28;20396;-82
2021/09/01 12:59:15;;;;;;;9.97;5.03;;;24.00;1.00;;;;;;5014624;28;20990;-83
2021/09/01 13:01:40;;;;;;;11.30;4.60;;;24.10;1.00;;;;;;5006577;28;21049;-82
2021/09/01 13:04:06;;;;;;;7.30;3.97;;;24.20;1.00;;;;;;5010692;28;20420;-82
2021/09/01 13:06:33;;;;;;;12.23;4.80;;;;;;;;;;5027358;28;20175;-79
2021/09/01 13:08:58;;;;;;;10.93;4.70;;;24.20;1.00;;;;;;5022857;28;20475;-79
2021/09/01 13:12:08;;;;;;;10.67;4.00;;;24.40;1.00;;;;;;5065909;28;20952;-80
2021/09/01 13:15:09;;;;;;;8.43;4.40;;;24.40;1.00;;;;;;5031890;28;20545;-80
2021/09/01 13:17:45;;;;;;;4.57;3.70;;;24.60;1.00;;;;;;5019356;28;20455;-80
2021/09/01 13:20:13;;;;;;;8.20;4.57;;;24.60;1.00;;;;;;5036394;28;20924;-83
2021/09/01 13:22:40;;;;;;;7.00;3.67;;;24.60;1.00;;;;;;5030886;28;20409;-81
2021/09/01 13:25:08;;;;;;;9.90;3.90;;;24.50;1.00;;;;;;5022102;28;20411;-82
2021/09/01 13:30:57;;;;;;;9.87;4.27;;;24.10;1.00;;;;;;5035377;28;20442;-83
2021/09/01 13:33:23;;;;;;;8.60;4.10;;;24.00;1.00;;;;;;5034653;28;20775;-81
2021/09/01 13:35:49;;;;;;;10.77;3.67;;;23.90;1.00;;;;;;5033183;28;20424;-81
2021/09/01 13:38:14;;;;;;;8.23;4.30;;;23.90;1.00;;;;;;5028200;28;20470;-81
2021/09/01 13:40:40;;;;;;;4.53;4.03;;;24.10;1.00;;;;;;5029728;28;20684;-81
2021/09/01 13:43:07;;;;;;;5.77;3.00;;;;;;;;;;5029979;28;20200;-81
2021/09/01 13:45:33;;;;;;;5.60;3.37;;;;;;;;;;5020501;28;20178;-81
2021/09/01 13:47:59;;;;;;;5.47;3.53;;;24.50;1.00;;;;;;5033327;28;20418;-84
2021/09/01 13:50:25;;;;;;;6.20;3.63;;;;;;;;;;5034242;28;20830;-81
2021/09/01 13:52:51;;;;;;;6.30;3.70;;;24.80;1.00;;;;;;5021410;28;20806;-82
2021/09/01 13:55:27;;;;;;;7.20;3.63;;;25.10;1.00;;;;;;5022266;28;20426;-82
2021/09/01 13:58:00;;;;;;;10.10;3.83;;;25.10;1.00;;;;;;5049145;28;20234;-80
2021/09/01 14:00:31;;;;;;;6.13;3.80;;;25.30;1.00;;;;;;5031685;28;20426;-81